Time;durP1;ratioP1;P1;durP2;ratioP2;P2;SDS_P1;SDS_P2;PMS_P1;PMS_P2;Temp;Humidity;BMP_temperature;BMP_pressure;BME280_temperature;BME280_humidity;BME280_pressure;Samples;Min_cycle;Max_cycle;Signal;HPM_P1;HPM_P2
2022/05/03 00:00:33;;;;;;;19.55;7.03;;;;;;;17.97;77.64;100498.81;2089828;28;20045;-72
2022/05/03 00:02:06;;;;;;;17.13;7.35;;;;;;;17.98;77.64;100504.16;2102507;28;20066;-71
2022/05/03 00:03:31;;;;;;;16.58;7.35;;;;;;;17.96;77.69;100500.63;2104986;28;20052;-71
2022/05/03 00:05:02;;;;;;;16.63;6.75;;;;;;;17.97;77.75;100505.06;2104387;28;20608;-72
2022/05/03 00:06:30;;;;;;;26.10;8.40;;;;;;;17.98;77.84;100500.59;2103287;28;20093;-72
2022/05/03 00:08:01;;;;;;;24.58;8.32;;;;;;;17.97;77.83;100502.38;2104512;28;20450;-72
2022/05/03 00:09:30;;;;;;;24.35;7.93;;;;;;;17.96;78.09;100500.63;2096404;28;20033;-71
2022/05/03 00:11:05;;;;;;;19.67;6.63;;;;;;;17.92;78.11;100499.78;2101470;28;20048;-71
2022/05/03 00:12:32;;;;;;;18.33;6.97;;;;;;;17.90;78.39;100508.75;2103864;28;20437;-71
2022/05/03 00:14:04;;;;;;;18.48;6.85;;;;;;;17.90;78.47;100506.97;2105479;28;20074;-72
2022/05/03 00:15:29;;;;;;;16.35;7.45;;;;;;;17.90;78.59;100511.41;2095729;28;20049;-71
2022/05/03 00:16:54;;;;;;;19.95;7.05;;;;;;;17.91;78.50;100506.06;2101295;28;20143;-72
2022/05/03 00:18:17;;;;;;;22.35;8.63;;;;;;;17.92;78.54;100504.22;2094554;28;20097;-71
2022/05/03 00:19:39;;;;;;;24.15;7.40;;;;;;;17.90;78.70;100501.63;2092892;28;20044;-72
2022/05/03 00:21:02;;;;;;;21.60;8.15;;;;;;;17.90;78.84;100500.72;2095022;28;20122;-72
2022/05/03 00:22:25;;;;;;;23.42;8.35;;;;;;;17.89;78.95;100496.28;2102525;28;20050;-72
2022/05/03 00:23:46;;;;;;;22.75;8.07;;;;;;;17.87;78.95;100495.44;2103585;28;20503;-72
2022/05/03 00:25:09;;;;;;;21.75;7.50;;;;;;;17.84;78.90;100493.72;2090712;28;20045;-72
2022/05/03 00:26:32;;;;;;;23.88;7.15;;;;;;;17.83;79.06;100497.28;2102779;28;20036;-72
2022/05/03 00:27:56;;;;;;;17.98;7.22;;;;;;;17.81;79.08;100506.22;2103444;28;20056;-72
2022/05/03 00:29:19;;;;;;;20.23;8.13;;;;;;;17.82;79.16;100514.22;2103185;28;20097;-71
2022/05/03 00:30:44;;;;;;;17.27;6.65;;;;;;;17.85;79.21;100518.63;2103354;28;20446;-72
2022/05/03 00:32:08;;;;;;;19.60;7.68;;;;;;;17.86;79.19;100515.03;2101854;28;20101;-70
2022/05/03 00:33:33;;;;;;;21.77;7.15;;;;;;;17.88;79.27;100507.88;2091526;28;20135;-72
2022/05/03 00:34:58;;;;;;;21.00;7.38;;;;;;;17.92;79.29;100512.25;2091273;28;20512;-72
2022/05/03 00:36:20;;;;;;;16.35;7.80;;;;;;;17.92;79.30;100515.81;2101100;28;20152;-71
2022/05/03 00:37:43;;;;;;;22.45;7.55;;;;;;;17.94;79.41;100507.75;2094858;28;20105;-71
2022/05/03 00:39:05;;;;;;;18.10;7.28;;;;;;;17.96;79.32;100513.09;2100744;28;20100;-71
2022/05/03 00:40:33;;;;;;;17.73;7.05;;;;;;;17.99;79.47;100513.91;2103078;28;20564;-72
2022/05/03 00:42:01;;;;;;;26.63;7.85;;;;;;;18.02;79.38;100515.66;2095567;28;20056;-72
2022/05/03 00:43:32;;;;;;;23.70;6.82;;;;;;;18.07;79.40;100519.09;2099653;28;20085;-72
2022/05/03 00:45:03;;;;;;;22.75;8.32;;;;;;;18.10;79.47;100513.72;2102549;28;20044;-72
2022/05/03 00:46:32;;;;;;;21.75;7.95;;;;;;;18.13;79.35;100519.88;2105924;28;20044;-72
2022/05/03 00:47:59;;;;;;;22.80;7.57;;;;;;;18.13;79.38;100517.19;2095210;28;20049;-72
2022/05/03 00:49:27;;;;;;;17.92;7.63;;;;;;;18.14;79.33;100516.28;2103982;28;20047;-72
2022/05/03 00:51:02;;;;;;;18.83;7.10;;;;;;;18.13;79.33;100519.88;2096686;28;20486;-72
2022/05/03 00:52:34;;;;;;;13.82;7.05;;;;;;;18.12;79.49;100511.88;2102689;28;20434;-72
2022/05/03 00:54:12;;;;;;;15.63;7.80;;;;;;;18.08;79.57;100513.75;2097616;28;20545;-72
2022/05/03 00:56:01;;;;;;;19.52;7.22;;;;;;;18.06;79.59;100507.53;2103034;28;20504;-71
2022/05/03 00:57:38;;;;;;;20.08;7.43;;;;;;;18.04;79.73;100516.50;2089226;28;20103;-71
2022/05/03 00:59:06;;;;;;;20.15;6.82;;;;;;;18.02;79.80;100511.19;2100871;28;20036;-72
2022/05/03 01:00:32;;;;;;;22.92;7.90;;;;;;;18.01;79.77;100514.75;2087482;28;20123;-72
2022/05/03 01:02:04;;;;;;;20.33;7.90;;;;;;;18.01;79.71;100509.41;2109619;28;20098;-72
2022/05/03 01:03:30;;;;;;;18.73;8.13;;;;;;;17.99;79.69;100513.00;2093469;28;20082;-72
2022/05/03 01:05:01;;;;;;;22.38;8.23;;;;;;;18.00;79.70;100507.66;2093690;28;20048;-72
2022/05/03 01:06:38;;;;;;;24.58;8.23;;;;;;;18.02;79.74;100512.97;2093570;28;20109;-72
2022/05/03 01:08:05;;;;;;;23.85;8.32;;;;;;;18.00;79.75;100513.00;2096274;28;20098;-72
2022/05/03 01:09:38;;;;;;;21.40;7.55;;;;;;;17.97;79.82;100512.19;2110024;28;20494;-72
2022/05/03 01:11:15;;;;;;;20.65;7.75;;;;;;;17.96;80.03;100505.97;2096289;28;20434;-72
2022/05/03 01:12:50;;;;;;;16.38;7.88;;;;;;;17.97;80.13;100514.84;2095999;28;20045;-71
2022/05/03 01:14:26;;;;;;;25.00;8.77;;;;;;;17.95;80.25;100512.19;2091018;28;20047;-72
2022/05/03 01:15:53;;;;;;;21.25;8.02;;;;;;;17.95;80.24;100504.19;2096529;28;20053;-71
2022/05/03 01:17:22;;;;;;;17.88;6.88;;;;;;;17.95;80.51;100511.31;2086849;28;20045;-72
2022/05/03 01:18:54;;;;;;;19.15;7.50;;;;;;;17.92;80.61;100514.91;2099493;28;20130;-71
2022/05/03 01:20:22;;;;;;;;;;;;;;;17.91;80.67;100511.41;2102280;28;20052;-72
2022/05/03 01:22:05;;;;;;;20.23;7.43;;;;;;;17.87;80.85;100512.34;2103641;28;19920;-72
2022/05/03 01:23:50;;;;;;;24.95;8.98;;;;;;;17.87;80.76;100511.47;2105139;28;20059;-72
2022/05/03 01:25:35;;;;;;;16.92;7.40;;;;;;;17.86;80.76;100507.03;2102140;28;20047;-72
2022/05/03 01:27:33;;;;;;;18.25;7.53;;;;;;;17.86;80.95;100502.56;2089077;28;20048;-72
2022/05/03 01:29:23;;;;;;;20.63;7.35;;;;;;;17.85;80.96;100508.81;2089573;28;20456;-72
2022/05/03 01:30:49;;;;;;;18.50;7.88;;;;;;;17.80;81.09;100504.47;2101733;28;20048;-71
2022/05/03 01:32:13;;;;;;;20.83;7.30;;;;;;;17.76;81.09;100497.44;2096132;28;20137;-72
2022/05/03 01:33:40;;;;;;;19.58;8.27;;;;;;;17.75;81.42;100499.22;2099194;28;20097;-71
2022/05/03 01:35:06;;;;;;;18.77;6.10;;;;;;;17.77;81.49;100504.53;2094941;28;20381;-71
2022/05/03 01:36:41;;;;;;;18.25;7.60;;;;;;;17.78;81.48;100500.97;2098105;28;20142;-72
2022/05/03 01:38:21;;;;;;;19.75;8.05;;;;;;;17.81;81.49;100500.88;2094121;28;20053;-72
2022/05/03 01:39:59;;;;;;;23.45;8.27;;;;;;;17.78;81.66;100501.84;2096855;28;20052;-72
2022/05/03 01:41:31;;;;;;;25.05;8.55;;;;;;;17.76;81.71;100506.31;2095514;28;20041;-72
2022/05/03 01:43:11;;;;;;;25.10;8.05;;;;;;;17.76;81.89;100500.97;2101521;28;20392;-72
2022/05/03 01:44:40;;;;;;;19.15;7.32;;;;;;;17.79;81.81;100503.59;2103016;28;20044;-72
2022/05/03 01:46:11;;;;;;;18.33;7.00;;;;;;;17.81;81.85;100501.78;2095819;28;20032;-72
2022/05/03 01:47:44;;;;;;;19.67;7.32;;;;;;;17.86;81.95;100505.22;2102820;28;20104;-71
2022/05/03 01:50:58;;;;;;;19.27;9.32;;;;;;;17.90;81.68;100498.06;2096190;28;20068;-72
2022/05/03 01:52:47;;;;;;;17.55;6.47;;;;;;;17.89;81.71;100493.63;2102869;28;20040;-72
2022/05/03 01:54:25;;;;;;;20.17;8.00;;;;;;;17.88;81.91;100498.09;2105440;28;20052;-72
2022/05/03 01:56:37;;;;;;;22.42;8.07;;;;;;;17.91;81.80;100500.72;2103565;28;20052;-72
2022/05/03 01:58:11;;;;;;;18.42;7.65;;;;;;;17.93;81.82;100501.53;2100906;28;20609;-72
2022/05/03 01:59:46;;;;;;;17.40;7.47;;;;;;;17.97;81.76;100502.38;2095196;28;20047;-71
2022/05/03 02:01:25;;;;;;;21.33;8.40;;;;;;;18.00;81.66;100502.31;2086577;28;20139;-72
2022/05/03 02:02:55;;;;;;;17.98;7.65;;;;;;;18.02;81.62;100496.94;2096952;28;20454;-72
2022/05/03 02:04:45;;;;;;;16.48;7.25;;;;;;;18.04;81.68;100508.50;2087281;28;20052;-72
2022/05/03 02:06:11;;;;;;;20.77;7.88;;;;;;;18.06;81.64;100506.66;2092134;28;20651;-71
2022/05/03 02:07:54;;;;;;;16.35;7.90;;;;;;;18.07;81.61;100503.97;2091324;28;20048;-72
2022/05/03 02:09:29;;;;;;;16.88;7.20;;;;;;;18.08;81.67;100511.06;2097132;28;20369;-72
2022/05/03 02:11:06;;;;;;;16.42;7.50;;;;;;;18.07;81.65;100508.41;2101417;28;20511;-71
2022/05/03 02:12:29;;;;;;;23.42;6.75;;;;;;;18.06;81.81;100501.31;2104558;28;20423;-72
2022/05/03 02:15:51;;;;;;;17.00;7.32;;;;;;;18.06;81.78;100493.28;2103675;28;20130;-71
2022/05/03 02:17:29;;;;;;;15.68;6.80;;;;;;;18.05;81.68;100492.41;2093920;28;20072;-71
2022/05/03 02:19:07;;;;;;;14.20;6.43;;;;;;;18.05;81.82;100495.06;2103967;28;20067;-72
2022/05/03 02:21:02;;;;;;;14.23;5.78;;;;;;;18.06;81.88;100495.97;2098178;28;20041;-72
2022/05/03 02:22:56;;;;;;;18.55;7.30;;;;;;;18.06;81.79;100495.97;2098550;28;20135;-72
2022/05/03 02:24:25;;;;;;;18.77;6.80;;;;;;;18.07;81.75;100490.59;2092995;28;20066;-72
2022/05/03 02:26:01;;;;;;;14.43;6.85;;;;;;;18.06;81.66;100491.50;2106620;28;20099;-73
2022/05/03 02:27:27;;;;;;;18.30;7.32;;;;;;;18.03;81.66;100491.56;2099612;28;20045;-72
2022/05/03 02:28:55;;;;;;;17.83;6.57;;;;;;;18.02;81.64;100489.81;2096405;28;20531;-72
2022/05/03 02:30:20;;;;;;;21.45;7.63;;;;;;;17.99;81.71;100497.88;2095871;28;20048;-72
2022/05/03 02:31:51;;;;;;;16.23;6.30;;;;;;;17.99;81.80;100502.31;2102299;28;20044;-71
2022/05/03 02:33:20;;;;;;;15.18;7.35;;;;;;;17.96;81.90;100503.28;2105068;28;20050;-72
2022/05/03 02:34:48;;;;;;;19.98;6.80;;;;;;;17.95;81.83;100517.53;2098120;28;20113;-72
2022/05/03 02:36:17;;;;;;;22.20;7.65;;;;;;;17.92;81.81;100522.94;2092603;28;20052;-71
2022/05/03 02:37:48;;;;;;;22.60;7.78;;;;;;;17.94;81.88;100526.47;2102099;28;20077;-72
2022/05/03 02:39:13;;;;;;;14.70;6.38;;;;;;;17.95;81.62;100525.56;2104233;28;20696;-71
2022/05/03 02:40:44;;;;;;;19.63;6.20;;;;;;;17.95;81.66;100527.34;2095915;28;20393;-71
2022/05/03 02:42:09;;;;;;;18.67;6.45;;;;;;;17.92;81.70;100528.28;2097125;28;20094;-72
2022/05/03 02:43:31;;;;;;;19.45;7.30;;;;;;;17.92;81.89;100526.47;2096420;28;20101;-71
2022/05/03 02:44:57;;;;;;;13.98;7.00;;;;;;;17.93;81.63;100527.38;2092721;28;20048;-72
2022/05/03 02:46:48;;;;;;;20.80;7.35;;;;;;;17.93;81.66;100522.03;2103228;28;20040;-71
2022/05/03 02:48:14;;;;;;;18.08;7.55;;;;;;;17.89;81.71;100521.22;2106695;28;20048;-72
2022/05/03 02:50:10;;;;;;;19.23;6.97;;;;;;;17.88;81.65;100523.91;2095042;28;20041;-71
2022/05/03 02:51:40;;;;;;;17.67;7.28;;;;;;;17.86;81.71;100534.59;2106612;28;20077;-71
2022/05/03 02:53:08;;;;;;;17.92;7.07;;;;;;;17.83;81.75;100537.34;2098479;28;20044;-71
2022/05/03 02:54:39;;;;;;;20.23;7.65;;;;;;;17.85;81.58;100535.50;2098249;28;20055;-71
2022/05/03 02:56:09;;;;;;;18.58;6.22;;;;;;;17.86;81.65;100533.72;2101348;28;20055;-72
2022/05/03 02:57:40;;;;;;;19.70;7.65;;;;;;;17.87;81.79;100540.84;2105138;28;20067;-72
2022/05/03 02:59:12;;;;;;;17.92;7.00;;;;;;;17.88;81.66;100535.47;2105582;28;20040;-71
2022/05/03 03:02:29;;;;;;;19.33;7.07;;;;;;;17.95;81.31;100543.38;2098304;28;20094;-71
2022/05/03 03:04:03;;;;;;;18.98;7.15;;;;;;;17.93;81.29;100540.72;2096138;28;20122;-71
2022/05/03 03:05:28;;;;;;;16.00;6.63;;;;;;;17.91;81.29;100540.78;2101268;28;20052;-71
2022/05/03 03:06:55;;;;;;;18.58;7.18;;;;;;;17.88;81.30;100542.59;2101402;28;20550;-71
2022/05/03 03:08:20;;;;;;;20.25;7.60;;;;;;;17.84;81.42;100532.91;2104073;28;20059;-71
2022/05/03 03:09:48;;;;;;;14.15;5.95;;;;;;;17.82;81.39;100532.03;2105898;28;20094;-71
2022/05/03 03:11:16;;;;;;;14.63;6.88;;;;;;;17.78;81.62;100535.69;2096519;28;20106;-71
2022/05/03 03:12:45;;;;;;;21.42;7.20;;;;;;;17.74;81.59;100532.16;2098163;28;20146;-72
2022/05/03 03:14:11;;;;;;;21.77;7.90;;;;;;;17.72;81.68;100541.97;2104123;28;20057;-71
2022/05/03 03:15:40;;;;;;;23.35;7.38;;;;;;;17.69;81.57;100544.72;2104104;28;20056;-71
2022/05/03 03:17:06;;;;;;;19.00;7.47;;;;;;;17.70;81.54;100549.16;2096349;28;20401;-71
2022/05/03 03:18:33;;;;;;;21.40;7.97;;;;;;;17.73;81.45;100550.88;2100443;28;20066;-72
2022/05/03 03:20:05;;;;;;;20.95;8.25;;;;;;;17.77;81.08;100548.16;2090209;28;20374;-71
2022/05/03 03:21:33;;;;;;;21.30;8.32;;;;;;;17.74;81.10;100548.19;2087485;28;20056;-72
2022/05/03 03:22:56;;;;;;;19.67;8.43;;;;;;;17.72;80.98;100541.13;2102199;28;20051;-72
2022/05/03 03:24:20;;;;;;;21.05;8.85;;;;;;;17.72;80.97;100543.78;2099030;28;20064;-72
2022/05/03 03:25:43;;;;;;;20.00;7.65;;;;;;;17.74;81.04;100540.16;2088962;28;20068;-71
2022/05/03 03:27:05;;;;;;;18.15;7.97;;;;;;;17.74;81.05;100536.63;2092201;28;20148;-71
2022/05/03 03:28:30;;;;;;;15.63;7.20;;;;;;;17.75;81.04;100547.28;2095692;28;20131;-72
2022/05/03 03:29:55;;;;;;;18.45;7.15;;;;;;;17.78;80.98;100546.34;2094368;28;20048;-72
2022/05/03 03:31:21;;;;;;;15.05;7.45;;;;;;;17.80;81.07;100550.75;2101685;28;20048;-72
2022/05/03 03:32:48;;;;;;;21.05;8.02;;;;;;;17.82;80.95;100554.28;2096020;28;20064;-71
2022/05/03 03:34:13;;;;;;;19.73;8.05;;;;;;;17.85;81.00;100561.38;2101073;28;20054;-72
2022/05/03 03:35:38;;;;;;;26.80;8.25;;;;;;;17.92;80.90;100560.31;2099833;28;20075;-71
2022/05/03 03:37:01;;;;;;;17.45;7.70;;;;;;;17.94;80.83;100547.84;2099963;28;20412;-71
2022/05/03 03:38:32;;;;;;;19.33;8.25;;;;;;;17.96;80.81;100551.38;2102933;28;20094;-72
2022/05/03 03:39:54;;;;;;;19.17;7.40;;;;;;;17.96;80.74;100553.16;2096406;28;20089;-71
2022/05/03 03:41:17;;;;;;;20.67;8.07;;;;;;;18.02;80.80;100559.25;2100893;28;20140;-71
2022/05/03 03:42:39;;;;;;;22.60;9.63;;;;;;;17.98;80.81;100554.03;2098149;28;20112;-72
2022/05/03 03:44:03;;;;;;;17.30;7.15;;;;;;;17.97;80.87;100554.91;2099208;28;20060;-72
2022/05/03 03:45:26;;;;;;;20.05;7.65;;;;;;;17.97;80.89;100561.16;2101708;28;20480;-72
2022/05/03 03:46:48;;;;;;;24.27;7.70;;;;;;;17.99;80.93;100553.97;2102568;28;20491;-72
2022/05/03 03:48:11;;;;;;;20.17;7.60;;;;;;;17.99;81.03;100564.66;2103602;28;20044;-72
2022/05/03 03:49:35;;;;;;;19.23;7.32;;;;;;;18.00;81.01;100565.53;2089632;28;20139;-71
2022/05/03 03:51:05;;;;;;;18.58;7.03;;;;;;;18.00;80.99;100558.41;2095884;28;20048;-72
2022/05/03 03:52:28;;;;;;;21.45;7.93;;;;;;;17.96;81.04;100553.16;2100206;28;20049;-71
2022/05/03 03:53:51;;;;;;;21.15;8.80;;;;;;;17.97;81.02;100555.81;2102528;28;20438;-71
2022/05/03 03:55:14;;;;;;;17.40;7.07;;;;;;;18.00;81.13;100569.09;2102856;28;20056;-72
2022/05/03 03:56:36;;;;;;;17.52;7.85;;;;;;;18.04;81.09;100567.25;2102156;28;20051;-72
2022/05/03 03:57:59;;;;;;;18.10;7.50;;;;;;;18.10;81.06;100572.50;2103247;28;20459;-72
2022/05/03 03:59:20;;;;;;;19.23;7.60;;;;;;;18.12;80.92;100565.31;2102649;28;20105;-72
2022/05/03 04:00:43;;;;;;;24.85;7.15;;;;;;;18.15;80.82;100566.16;2096627;28;20048;-71
2022/05/03 04:02:06;;;;;;;21.63;8.15;;;;;;;18.20;80.90;100571.41;2091340;28;20049;-72
2022/05/03 04:03:29;;;;;;;18.45;8.23;;;;;;;18.23;80.95;100568.69;2092841;28;20523;-71
2022/05/03 04:04:53;;;;;;;22.15;7.93;;;;;;;18.27;80.90;100568.59;2094683;28;20585;-71
2022/05/03 04:06:17;;;;;;;17.63;6.82;;;;;;;18.32;80.83;100569.38;2089509;28;20498;-71
2022/05/03 04:07:39;;;;;;;21.02;8.07;;;;;;;18.37;80.74;100576.44;2089746;28;20071;-72
2022/05/03 04:09:02;;;;;;;18.80;6.95;;;;;;;18.41;80.58;100580.81;2093192;28;20396;-72
2022/05/03 04:10:24;;;;;;;17.50;7.57;;;;;;;18.41;80.57;100589.69;2090624;28;20053;-72
2022/05/03 04:11:47;;;;;;;22.33;8.85;;;;;;;18.42;80.48;100578.09;2098871;28;20051;-71
2022/05/03 04:13:09;;;;;;;20.05;7.82;;;;;;;18.41;80.60;100588.81;2104443;28;20040;-72
2022/05/03 04:14:32;;;;;;;18.40;7.75;;;;;;;18.39;80.42;100593.31;2097954;28;20166;-72
2022/05/03 04:15:55;;;;;;;17.67;7.85;;;;;;;18.37;80.45;100590.69;2101203;28;20474;-72
2022/05/03 04:17:18;;;;;;;29.17;8.60;;;;;;;18.36;80.54;100583.56;2097530;28;20277;-72
2022/05/03 04:18:48;;;;;;;21.27;8.95;;;;;;;18.38;80.36;100592.41;2100311;28;20059;-72
2022/05/03 04:20:12;;;;;;;13.95;7.32;;;;;;;18.33;80.15;100592.53;2084784;28;20414;-71
2022/05/03 04:21:36;;;;;;;17.92;8.15;;;;;;;18.18;80.34;100592.78;2084552;28;20041;-72
2022/05/03 04:22:59;;;;;;;19.83;8.10;;;;;;;18.08;80.53;100596.56;2100943;28;20047;-72
2022/05/03 04:24:20;;;;;;;16.63;7.57;;;;;;;18.02;80.69;100596.66;2101733;28;20131;-72
2022/05/03 04:25:43;;;;;;;18.15;8.77;;;;;;;18.00;80.66;100593.13;2100959;28;20097;-72
2022/05/03 04:27:04;;;;;;;15.77;7.45;;;;;;;17.96;80.70;100596.78;2103408;28;20040;-72
2022/05/03 04:28:27;;;;;;;17.85;8.23;;;;;;;17.94;80.63;100601.25;2102306;28;20040;-73
2022/05/03 04:29:49;;;;;;;18.98;7.93;;;;;;;17.92;80.73;100600.38;2102116;28;20140;-72
2022/05/03 04:31:12;;;;;;;22.58;7.70;;;;;;;17.96;80.72;100601.22;2086967;28;20045;-72
2022/05/03 04:32:35;;;;;;;16.65;7.80;;;;;;;18.03;80.59;100609.13;2091802;28;20450;-71
2022/05/03 04:33:58;;;;;;;20.90;9.10;;;;;;;18.08;80.40;100611.69;2100900;28;20110;-72
2022/05/03 04:35:21;;;;;;;19.88;7.30;;;;;;;18.09;80.24;100609.00;2100799;28;20141;-71
2022/05/03 04:36:44;;;;;;;20.58;8.35;;;;;;;18.15;80.31;100614.25;2098169;28;20067;-71
2022/05/03 04:38:06;;;;;;;16.98;8.43;;;;;;;18.16;80.15;100613.34;2097473;28;20127;-71
2022/05/03 04:39:28;;;;;;;17.38;7.95;;;;;;;18.21;80.04;100605.22;2094582;28;20118;-72
2022/05/03 04:40:51;;;;;;;18.70;8.85;;;;;;;18.22;80.14;100613.22;2102358;28;20044;-72
2022/05/03 04:42:15;;;;;;;11.38;6.82;;;;;;;18.23;80.00;100611.44;2097430;28;20053;-71
2022/05/03 04:43:37;;;;;;;16.15;7.43;;;;;;;18.19;80.11;100615.06;2092815;28;20137;-72
2022/05/03 04:44:59;;;;;;;15.88;7.70;;;;;;;18.22;80.32;100610.56;2092439;28;20056;-72
2022/05/03 04:46:21;;;;;;;18.98;7.88;;;;;;;18.25;80.33;100612.28;2096648;28;20085;-72
2022/05/03 04:47:43;;;;;;;16.20;7.80;;;;;;;18.26;80.21;100617.59;2101552;28;20113;-72
2022/05/03 04:49:06;;;;;;;22.63;7.28;;;;;;;18.30;80.23;100613.97;2086809;28;20459;-72
2022/05/03 04:50:29;;;;;;;17.90;8.45;;;;;;;18.29;80.17;100622.91;2105382;28;20048;-72
2022/05/03 04:51:52;;;;;;;20.73;7.90;;;;;;;18.32;80.23;100614.81;2102639;28;20139;-73
2022/05/03 04:53:16;;;;;;;18.98;7.88;;;;;;;18.27;80.36;100616.69;2086551;28;20146;-72
2022/05/03 04:54:38;;;;;;;17.15;8.10;;;;;;;18.32;80.43;100612.13;2086823;28;20048;-72
2022/05/03 04:56:00;;;;;;;16.65;7.40;;;;;;;18.30;80.50;100613.97;2088810;28;20048;-72
2022/05/03 04:57:22;;;;;;;18.58;8.77;;;;;;;18.39;80.40;100615.56;2095977;28;20051;-72
2022/05/03 04:58:43;;;;;;;15.00;7.30;;;;;;;18.40;80.32;100625.34;2103113;28;20052;-72
2022/05/03 05:00:07;;;;;;;16.42;7.45;;;;;;;18.45;80.32;100625.25;2101839;28;20071;-72
2022/05/03 05:01:29;;;;;;;21.90;8.40;;;;;;;18.48;80.38;100630.56;2103098;28;20048;-72
2022/05/03 05:02:51;;;;;;;19.15;7.63;;;;;;;18.51;80.40;100628.69;2097318;28;20082;-72
2022/05/03 05:04:15;;;;;;;18.30;7.80;;;;;;;18.52;80.49;100626.91;2102206;28;20139;-72
2022/05/03 05:05:38;;;;;;;18.55;7.40;;;;;;;18.54;80.32;100638.47;2092737;28;20051;-71
2022/05/03 05:07:02;;;;;;;16.25;6.68;;;;;;;18.57;80.40;100639.34;2105408;28;20039;-72
2022/05/03 05:08:25;;;;;;;15.75;6.15;;;;;;;18.56;80.65;100637.56;2090736;28;22089;-72
2022/05/03 05:11:23;;;;;;;14.98;7.22;;;;;;;18.62;80.45;100633.91;2100848;28;20048;-72
2022/05/03 05:12:45;;;;;;;20.05;7.10;;;;;;;18.62;80.55;100645.47;2101530;28;20153;-71
2022/05/03 05:14:07;;;;;;;18.27;7.57;;;;;;;18.65;80.60;100644.50;2101099;28;20048;-72
2022/05/03 05:15:31;;;;;;;15.15;7.28;;;;;;;18.82;80.34;100638.84;2094423;28;20107;-72
2022/05/03 05:16:54;;;;;;;18.45;7.00;;;;;;;18.78;80.44;100642.47;2098530;28;20139;-72
2022/05/03 05:18:17;;;;;;;18.13;6.68;;;;;;;18.96;80.29;100645.69;2100298;28;20044;-72
2022/05/03 05:19:40;;;;;;;16.75;7.35;;;;;;;18.85;80.28;100639.66;2097853;28;20044;-72
2022/05/03 05:21:02;;;;;;;13.18;6.30;;;;;;;18.86;80.14;100641.44;2101197;28;20538;-72
2022/05/03 05:22:26;;;;;;;16.75;7.50;;;;;;;18.88;80.35;100647.63;2102721;28;20040;-71
2022/05/03 05:23:49;;;;;;;13.80;6.82;;;;;;;18.90;79.92;100642.25;2101593;28;20467;-73
2022/05/03 05:25:12;;;;;;;16.60;7.00;;;;;;;18.89;80.14;100649.41;2103201;28;20065;-72
2022/05/03 05:26:35;;;;;;;12.32;7.13;;;;;;;19.01;79.75;100650.94;2101115;28;20051;-72
2022/05/03 05:27:57;;;;;;;14.52;6.18;;;;;;;19.03;79.71;100649.97;2102802;28;20101;-72
2022/05/03 05:29:20;;;;;;;16.40;7.15;;;;;;;19.11;79.18;100647.16;2105314;28;20055;-72
2022/05/03 05:30:41;;;;;;;18.13;7.90;;;;;;;19.17;79.05;100652.38;2102592;28;20389;-72
2022/05/03 05:32:04;;;;;;;16.30;7.50;;;;;;;19.10;79.13;100650.72;2097957;28;20064;-72
2022/05/03 05:33:27;;;;;;;16.63;7.10;;;;;;;19.22;78.92;100652.28;2099883;28;20442;-71
2022/05/03 05:34:49;;;;;;;20.60;7.55;;;;;;;19.34;78.80;100643.97;2108885;28;20052;-71
2022/05/03 05:36:12;;;;;;;21.77;7.90;;;;;;;19.50;78.24;100645.41;2098908;28;20105;-72
2022/05/03 05:37:37;;;;;;;14.63;6.57;;;;;;;19.51;78.40;100641.81;2096604;28;20135;-71
2022/05/03 05:39:00;;;;;;;21.95;6.53;;;;;;;19.56;78.45;100641.75;2094762;28;20045;-72
2022/05/03 05:40:21;;;;;;;17.80;6.70;;;;;;;19.65;78.40;100647.75;2094697;28;20608;-72
2022/05/03 05:41:44;;;;;;;17.60;8.13;;;;;;;19.77;78.10;100643.88;2094640;28;20044;-73
2022/05/03 05:43:06;;;;;;;16.80;8.07;;;;;;;19.80;77.97;100651.88;2100596;28;20048;-72
2022/05/03 05:44:29;;;;;;;16.85;7.38;;;;;;;19.85;77.94;100642.78;2091836;28;20052;-71
2022/05/03 05:45:52;;;;;;;20.27;6.32;;;;;;;19.96;77.78;100652.34;2095875;28;20140;-72
2022/05/03 05:47:15;;;;;;;13.82;6.15;;;;;;;20.03;77.46;100646.81;2098319;28;20040;-72
2022/05/03 05:48:39;;;;;;;13.10;6.22;;;;;;;20.13;77.34;100647.47;2102605;28;20458;-72
2022/05/03 05:50:02;;;;;;;18.58;6.13;;;;;;;20.20;77.10;100638.38;2096786;28;20555;-73
2022/05/03 05:51:25;;;;;;;19.35;7.18;;;;;;;20.29;76.51;100649.72;2096275;28;20131;-72
2022/05/03 05:54:27;;;;;;;17.73;6.70;;;;;;;20.64;75.56;100650.63;2094956;28;20052;-72
2022/05/03 05:55:50;;;;;;;16.15;6.15;;;;;;;20.75;75.16;100658.34;2093183;28;20064;-72
2022/05/03 05:57:12;;;;;;;17.70;6.95;;;;;;;20.79;74.94;100654.69;2096851;28;20374;-72
2022/05/03 05:58:36;;;;;;;15.25;5.78;;;;;;;20.87;74.67;100658.03;2102065;28;20442;-72
2022/05/03 05:59:59;;;;;;;15.02;6.60;;;;;;;20.89;73.92;100656.16;2104650;28;20484;-72
2022/05/03 06:01:26;;;;;;;16.75;6.45;;;;;;;20.92;73.09;100661.47;2104607;28;20492;-72
2022/05/03 06:02:47;;;;;;;14.60;6.72;;;;;;;20.93;72.81;100660.53;2104767;28;20056;-72
2022/05/03 06:04:10;;;;;;;15.05;7.50;;;;;;;20.92;72.31;100656.97;2091082;28;20135;-72
2022/05/03 06:05:31;;;;;;;15.70;6.35;;;;;;;20.91;72.25;100660.56;2096652;28;20131;-72
2022/05/03 06:06:53;;;;;;;13.90;6.07;;;;;;;20.92;71.83;100658.78;2101922;28;20048;-72
2022/05/03 06:08:18;;;;;;;14.80;6.25;;;;;;;20.85;70.86;100652.69;2095216;28;20531;-72
2022/05/03 06:09:40;;;;;;;14.15;6.15;;;;;;;20.78;70.83;100652.91;2101030;28;20082;-72
2022/05/03 06:11:03;;;;;;;17.05;6.18;;;;;;;20.71;70.58;100667.41;2097629;28;20064;-72
2022/05/03 06:12:24;;;;;;;13.93;5.80;;;;;;;20.68;70.49;100663.88;2104219;28;20096;-72
2022/05/03 06:13:47;;;;;;;17.25;7.10;;;;;;;20.72;70.54;100663.81;2103360;28;20178;-71
2022/05/03 06:15:09;;;;;;;18.00;6.72;;;;;;;20.81;70.17;100672.47;2093585;28;20071;-72
2022/05/03 06:16:32;;;;;;;15.55;6.93;;;;;;;20.85;69.81;100659.88;2100951;28;20051;-72
2022/05/03 06:17:55;;;;;;;14.40;5.78;;;;;;;20.84;69.72;100659.00;2103256;28;20116;-71
2022/05/03 06:19:17;;;;;;;15.77;6.13;;;;;;;20.78;69.66;100674.38;2096201;28;20052;-72
2022/05/03 06:20:40;;;;;;;12.93;5.50;;;;;;;20.71;69.47;100667.41;2093281;28;20091;-71
2022/05/03 06:22:02;;;;;;;11.60;5.72;;;;;;;20.60;69.71;100676.66;2103558;28;20051;-72
2022/05/03 06:23:26;;;;;;;16.23;5.70;;;;;;;20.55;69.66;100683.91;2102378;28;20048;-72
2022/05/03 06:24:48;;;;;;;20.50;6.63;;;;;;;20.51;69.69;100684.06;2101637;28;20040;-72
2022/05/03 06:26:12;;;;;;;16.17;6.55;;;;;;;20.44;69.55;100686.00;2094912;28;20389;-72
2022/05/03 06:27:33;;;;;;;15.75;7.50;;;;;;;20.38;69.51;100688.84;2099327;28;20487;-72
2022/05/03 06:28:56;;;;;;;19.10;5.10;;;;;;;20.41;69.52;100685.22;2093128;28;20044;-71
2022/05/03 06:30:19;;;;;;;19.13;5.47;;;;;;;20.44;69.15;100687.81;2105326;27;20048;-72
2022/05/03 06:31:43;;;;;;;18.52;6.80;;;;;;;20.42;68.96;100687.84;2091674;28;20039;-71
2022/05/03 06:33:06;;;;;;;15.70;7.00;;;;;;;20.43;68.86;100691.41;2096051;28;20079;-72
2022/05/03 06:34:29;;;;;;;14.13;6.13;;;;;;;20.39;68.68;100690.63;2092799;28;20703;-71
2022/05/03 06:35:52;;;;;;;15.02;5.68;;;;;;;20.39;68.47;100689.75;2087782;28;20070;-72
2022/05/03 06:37:18;;;;;;;13.75;5.65;;;;;;;20.41;68.33;100707.56;2094262;28;20106;-72
2022/05/03 06:38:42;;;;;;;12.07;5.20;;;;;;;20.44;68.08;100688.69;2098345;28;20048;-72
2022/05/03 06:40:10;;;;;;;10.77;5.03;;;;;;;20.45;67.66;100706.56;2102808;28;20112;-72
2022/05/03 06:41:33;;;;;;;16.63;5.47;;;;;;;20.40;67.67;100705.78;2101330;28;20047;-71
2022/05/03 06:42:56;;;;;;;15.90;6.25;;;;;;;20.44;67.51;100710.16;2093724;28;20155;-72
2022/05/03 06:44:18;;;;;;;14.52;5.38;;;;;;;20.49;67.45;100715.38;2105908;28;20043;-72
2022/05/03 06:45:41;;;;;;;10.55;5.88;;;;;;;20.42;67.31;100711.97;2092906;28;20493;-72
2022/05/03 06:47:05;;;;;;;10.98;5.32;;;;;;;20.35;67.36;100712.19;2092718;28;20126;-72
2022/05/03 06:48:27;;;;;;;15.20;5.53;;;;;;;20.27;67.42;100709.69;2091885;28;20388;-72